sensor_id;sensor_type;location;lat;lon;timestamp;temperature;humidity
20005;DHT22;69160;45.498;-73.582;2023-08-08T00:02:18;22.40;99.90
20005;DHT22;69160;45.498;-73.582;2023-08-08T00:04:44;22.40;99.90
20005;DHT22;69160;45.498;-73.582;2023-08-08T00:07:10;22.40;99.90
20005;DHT22;69160;45.498;-73.582;2023-08-08T00:09:36;22.40;99.90
20005;DHT22;69160;45.498;-73.582;2023-08-08T00:12:03;22.30;99.90
20005;DHT22;69160;45.498;-73.582;2023-08-08T00:14:30;22.10;99.90
20005;DHT22;69160;45.498;-73.582;2023-08-08T00:16:56;22.10;99.90
20005;DHT22;69160;45.498;-73.582;2023-08-08T00:19:22;22.20;99.90
20005;DHT22;69160;45.498;-73.582;2023-08-08T00:21:48;22.20;99.90
20005;DHT22;69160;45.498;-73.582;2023-08-08T00:24:14;22.20;99.90
20005;DHT22;69160;45.498;-73.582;2023-08-08T00:26:40;22.30;99.90
20005;DHT22;69160;45.498;-73.582;2023-08-08T00:29:06;22.20;99.90
20005;DHT22;69160;45.498;-73.582;2023-08-08T00:31:33;22.30;99.90
20005;DHT22;69160;45.498;-73.582;2023-08-08T00:33:59;22.30;99.90
20005;DHT22;69160;45.498;-73.582;2023-08-08T00:36:25;22.30;99.90
20005;DHT22;69160;45.498;-73.582;2023-08-08T00:38:51;22.40;99.90
20005;DHT22;69160;45.498;-73.582;2023-08-08T00:41:17;22.40;99.90
20005;DHT22;69160;45.498;-73.582;2023-08-08T00:43:43;22.40;99.90
20005;DHT22;69160;45.498;-73.582;2023-08-08T00:46:10;22.40;99.90
20005;DHT22;69160;45.498;-73.582;2023-08-08T00:48:36;22.20;99.90
20005;DHT22;69160;45.498;-73.582;2023-08-08T00:51:03;22.20;99.90
20005;DHT22;69160;45.498;-73.582;2023-08-08T00:53:30;22.10;99.90
20005;DHT22;69160;45.498;-73.582;2023-08-08T00:55:59;22.10;99.90
20005;DHT22;69160;45.498;-73.582;2023-08-08T00:58:26;22.20;99.90
20005;DHT22;69160;45.498;-73.582;2023-08-08T01:00:54;22.20;99.90
20005;DHT22;69160;45.498;-73.582;2023-08-08T01:03:22;22.20;99.90
20005;DHT22;69160;45.498;-73.582;2023-08-08T01:05:53;22.30;99.90
20005;DHT22;69160;45.498;-73.582;2023-08-08T01:08:27;22.30;99.90
20005;DHT22;69160;45.498;-73.582;2023-08-08T01:10:55;22.30;99.90
20005;DHT22;69160;45.498;-73.582;2023-08-08T01:13:23;22.40;99.90
20005;DHT22;69160;45.498;-73.582;2023-08-08T01:15:52;22.40;99.90
20005;DHT22;69160;45.498;-73.582;2023-08-08T01:18:19;22.40;99.90
20005;DHT22;69160;45.498;-73.582;2023-08-08T01:20:46;22.40;99.90
20005;DHT22;69160;45.498;-73.582;2023-08-08T01:23:14;22.40;99.90
20005;DHT22;69160;45.498;-73.582;2023-08-08T01:25:42;22.30;99.90
20005;DHT22;69160;45.498;-73.582;2023-08-08T01:28:09;22.10;99.90
20005;DHT22;69160;45.498;-73.582;2023-08-08T01:30:35;22.10;99.90
20005;DHT22;69160;45.498;-73.582;2023-08-08T01:33:02;22.10;99.90
20005;DHT22;69160;45.498;-73.582;2023-08-08T01:35:31;22.20;99.90
20005;DHT22;69160;45.498;-73.582;2023-08-08T01:38:40;22.20;99.90
20005;DHT22;69160;45.498;-73.582;2023-08-08T01:40:59;22.30;99.90
20005;DHT22;69160;45.498;-73.582;2023-08-08T01:43:26;22.30;99.90
20005;DHT22;69160;45.498;-73.582;2023-08-08T01:45:54;22.30;99.90
20005;DHT22;69160;45.498;-73.582;2023-08-08T01:48:21;22.30;99.90
20005;DHT22;69160;45.498;-73.582;2023-08-08T01:50:47;22.40;99.90
20005;DHT22;69160;45.498;-73.582;2023-08-08T01:53:13;22.30;99.90
20005;DHT22;69160;45.498;-73.582;2023-08-08T01:55:39;22.20;99.90
20005;DHT22;69160;45.498;-73.582;2023-08-08T01:58:05;22.10;99.90
20005;DHT22;69160;45.498;-73.582;2023-08-08T02:00:32;22.10;99.90
20005;DHT22;69160;45.498;-73.582;2023-08-08T02:02:58;22.20;99.90
20005;DHT22;69160;45.498;-73.582;2023-08-08T02:05:24;22.30;99.90
20005;DHT22;69160;45.498;-73.582;2023-08-08T02:07:50;22.30;99.90
20005;DHT22;69160;45.498;-73.582;2023-08-08T02:10:16;22.30;99.90
20005;DHT22;69160;45.498;-73.582;2023-08-08T02:12:42;22.30;99.90
20005;DHT22;69160;45.498;-73.582;2023-08-08T02:15:09;22.30;99.90
20005;DHT22;69160;45.498;-73.582;2023-08-08T02:17:37;22.40;99.90
20005;DHT22;69160;45.498;-73.582;2023-08-08T02:20:04;22.40;99.90
20005;DHT22;69160;45.498;-73.582;2023-08-08T02:22:30;22.40;99.90
20005;DHT22;69160;45.498;-73.582;2023-08-08T02:24:56;22.30;99.90
20005;DHT22;69160;45.498;-73.582;2023-08-08T02:27:23;22.20;99.90
20005;DHT22;69160;45.498;-73.582;2023-08-08T02:29:49;22.10;99.90
20005;DHT22;69160;45.498;-73.582;2023-08-08T02:32:15;22.20;99.90
20005;DHT22;69160;45.498;-73.582;2023-08-08T02:34:41;22.30;99.90
20005;DHT22;69160;45.498;-73.582;2023-08-08T02:37:08;22.30;99.90
20005;DHT22;69160;45.498;-73.582;2023-08-08T02:39:34;22.30;99.90
20005;DHT22;69160;45.498;-73.582;2023-08-08T02:42:00;22.30;99.90
20005;DHT22;69160;45.498;-73.582;2023-08-08T02:44:27;22.30;99.90
20005;DHT22;69160;45.498;-73.582;2023-08-08T02:46:53;22.30;99.90
20005;DHT22;69160;45.498;-73.582;2023-08-08T02:49:19;22.30;99.90
20005;DHT22;69160;45.498;-73.582;2023-08-08T02:51:45;22.40;99.90
20005;DHT22;69160;45.498;-73.582;2023-08-08T02:54:12;22.40;99.90
20005;DHT22;69160;45.498;-73.582;2023-08-08T02:56:38;22.40;99.90
20005;DHT22;69160;45.498;-73.582;2023-08-08T02:59:04;22.30;99.90
20005;DHT22;69160;45.498;-73.582;2023-08-08T03:01:30;22.20;99.90
20005;DHT22;69160;45.498;-73.582;2023-08-08T03:03:56;22.20;99.90
20005;DHT22;69160;45.498;-73.582;2023-08-08T03:06:22;22.20;99.90
20005;DHT22;69160;45.498;-73.582;2023-08-08T03:08:48;22.30;99.90
20005;DHT22;69160;45.498;-73.582;2023-08-08T03:11:14;22.30;99.90
20005;DHT22;69160;45.498;-73.582;2023-08-08T03:13:41;22.30;99.90
20005;DHT22;69160;45.498;-73.582;2023-08-08T03:16:07;22.30;99.90
20005;DHT22;69160;45.498;-73.582;2023-08-08T03:18:33;22.30;99.90
20005;DHT22;69160;45.498;-73.582;2023-08-08T03:20:59;22.30;99.90
20005;DHT22;69160;45.498;-73.582;2023-08-08T03:23:25;22.40;99.90
20005;DHT22;69160;45.498;-73.582;2023-08-08T03:25:51;22.40;99.90
20005;DHT22;69160;45.498;-73.582;2023-08-08T03:28:18;22.40;99.90
20005;DHT22;69160;45.498;-73.582;2023-08-08T03:30:44;22.30;99.90
20005;DHT22;69160;45.498;-73.582;2023-08-08T03:33:10;22.20;99.90
20005;DHT22;69160;45.498;-73.582;2023-08-08T03:35:36;22.10;99.90
20005;DHT22;69160;45.498;-73.582;2023-08-08T03:38:02;22.10;99.90
20005;DHT22;69160;45.498;-73.582;2023-08-08T03:40:28;22.20;99.90
20005;DHT22;69160;45.498;-73.582;2023-08-08T03:42:54;22.20;99.90
20005;DHT22;69160;45.498;-73.582;2023-08-08T03:45:21;22.30;99.90
20005;DHT22;69160;45.498;-73.582;2023-08-08T03:47:47;22.30;99.90
20005;DHT22;69160;45.498;-73.582;2023-08-08T03:50:13;22.30;99.90
20005;DHT22;69160;45.498;-73.582;2023-08-08T03:52:39;22.40;99.90
20005;DHT22;69160;45.498;-73.582;2023-08-08T03:55:06;22.30;99.90
20005;DHT22;69160;45.498;-73.582;2023-08-08T03:57:32;22.40;99.90
20005;DHT22;69160;45.498;-73.582;2023-08-08T03:59:58;22.40;99.90
20005;DHT22;69160;45.498;-73.582;2023-08-08T04:02:24;22.40;99.90
20005;DHT22;69160;45.498;-73.582;2023-08-08T04:04:51;22.40;99.90
20005;DHT22;69160;45.498;-73.582;2023-08-08T04:07:17;22.30;99.90
20005;DHT22;69160;45.498;-73.582;2023-08-08T04:09:43;22.20;99.90
20005;DHT22;69160;45.498;-73.582;2023-08-08T04:12:09;22.10;99.90
20005;DHT22;69160;45.498;-73.582;2023-08-08T04:14:35;22.20;99.90
20005;DHT22;69160;45.498;-73.582;2023-08-08T04:17:02;22.20;99.90
20005;DHT22;69160;45.498;-73.582;2023-08-08T04:19:28;22.30;99.90
20005;DHT22;69160;45.498;-73.582;2023-08-08T04:21:54;22.30;99.90
20005;DHT22;69160;45.498;-73.582;2023-08-08T04:24:20;22.30;99.90
20005;DHT22;69160;45.498;-73.582;2023-08-08T04:26:47;22.30;99.90
20005;DHT22;69160;45.498;-73.582;2023-08-08T04:29:13;22.30;99.90
20005;DHT22;69160;45.498;-73.582;2023-08-08T04:31:39;22.30;99.90
20005;DHT22;69160;45.498;-73.582;2023-08-08T04:34:05;22.40;99.90
20005;DHT22;69160;45.498;-73.582;2023-08-08T04:36:31;22.40;99.90
20005;DHT22;69160;45.498;-73.582;2023-08-08T04:38:57;22.30;99.90
20005;DHT22;69160;45.498;-73.582;2023-08-08T04:41:24;22.10;99.90
20005;DHT22;69160;45.498;-73.582;2023-08-08T04:43:50;22.10;99.90
20005;DHT22;69160;45.498;-73.582;2023-08-08T04:46:16;22.20;99.90
20005;DHT22;69160;45.498;-73.582;2023-08-08T04:48:42;22.20;99.90
20005;DHT22;69160;45.498;-73.582;2023-08-08T04:51:08;22.30;99.90
20005;DHT22;69160;45.498;-73.582;2023-08-08T04:53:35;22.30;99.90
20005;DHT22;69160;45.498;-73.582;2023-08-08T04:56:01;22.30;99.90
20005;DHT22;69160;45.498;-73.582;2023-08-08T04:58:27;22.40;99.90
20005;DHT22;69160;45.498;-73.582;2023-08-08T05:00:53;22.40;99.90
20005;DHT22;69160;45.498;-73.582;2023-08-08T05:03:21;22.40;99.90
20005;DHT22;69160;45.498;-73.582;2023-08-08T05:05:47;22.40;99.90
20005;DHT22;69160;45.498;-73.582;2023-08-08T05:08:13;22.40;99.90
20005;DHT22;69160;45.498;-73.582;2023-08-08T05:10:40;22.40;99.90
20005;DHT22;69160;45.498;-73.582;2023-08-08T05:13:06;22.30;99.90
20005;DHT22;69160;45.498;-73.582;2023-08-08T05:15:32;22.30;99.90
20005;DHT22;69160;45.498;-73.582;2023-08-08T05:17:58;22.10;99.90
20005;DHT22;69160;45.498;-73.582;2023-08-08T05:20:25;22.20;99.90
20005;DHT22;69160;45.498;-73.582;2023-08-08T05:22:51;22.20;99.90
20005;DHT22;69160;45.498;-73.582;2023-08-08T05:25:17;22.30;99.90
20005;DHT22;69160;45.498;-73.582;2023-08-08T05:27:44;22.30;99.90
20005;DHT22;69160;45.498;-73.582;2023-08-08T05:30:10;22.30;99.90
20005;DHT22;69160;45.498;-73.582;2023-08-08T05:32:36;22.30;99.90
20005;DHT22;69160;45.498;-73.582;2023-08-08T05:35:02;22.30;99.90
20005;DHT22;69160;45.498;-73.582;2023-08-08T05:37:30;22.40;99.90
20005;DHT22;69160;45.498;-73.582;2023-08-08T05:39:56;22.40;99.90
20005;DHT22;69160;45.498;-73.582;2023-08-08T05:42:22;22.30;99.90
20005;DHT22;69160;45.498;-73.582;2023-08-08T05:44:48;22.20;99.90
20005;DHT22;69160;45.498;-73.582;2023-08-08T05:47:14;22.10;99.90
20005;DHT22;69160;45.498;-73.582;2023-08-08T05:49:40;22.20;99.90
20005;DHT22;69160;45.498;-73.582;2023-08-08T05:52:08;22.20;99.90
20005;DHT22;69160;45.498;-73.582;2023-08-08T05:54:35;22.30;99.90
20005;DHT22;69160;45.498;-73.582;2023-08-08T05:57:02;22.30;99.90
20005;DHT22;69160;45.498;-73.582;2023-08-08T05:59:28;22.30;99.90
20005;DHT22;69160;45.498;-73.582;2023-08-08T06:01:54;22.30;99.90
20005;DHT22;69160;45.498;-73.582;2023-08-08T06:04:20;22.30;99.90
20005;DHT22;69160;45.498;-73.582;2023-08-08T06:06:46;22.30;99.90
20005;DHT22;69160;45.498;-73.582;2023-08-08T06:09:15;22.40;99.90
20005;DHT22;69160;45.498;-73.582;2023-08-08T06:11:41;22.30;99.90
20005;DHT22;69160;45.498;-73.582;2023-08-08T06:14:07;22.20;99.90
20005;DHT22;69160;45.498;-73.582;2023-08-08T06:16:33;22.20;99.90
20005;DHT22;69160;45.498;-73.582;2023-08-08T06:19:00;22.10;99.90
20005;DHT22;69160;45.498;-73.582;2023-08-08T06:21:26;22.20;99.90
20005;DHT22;69160;45.498;-73.582;2023-08-08T06:23:52;22.20;99.90
20005;DHT22;69160;45.498;-73.582;2023-08-08T06:26:23;22.30;99.90
20005;DHT22;69160;45.498;-73.582;2023-08-08T06:28:49;22.30;99.90
20005;DHT22;69160;45.498;-73.582;2023-08-08T06:31:18;22.30;99.90
20005;DHT22;69160;45.498;-73.582;2023-08-08T06:33:44;22.40;99.90
20005;DHT22;69160;45.498;-73.582;2023-08-08T06:36:10;22.40;99.90
20005;DHT22;69160;45.498;-73.582;2023-08-08T06:38:37;22.40;99.90
20005;DHT22;69160;45.498;-73.582;2023-08-08T06:41:03;22.40;99.90
20005;DHT22;69160;45.498;-73.582;2023-08-08T06:43:30;22.30;99.90
20005;DHT22;69160;45.498;-73.582;2023-08-08T06:45:57;22.20;99.90
20005;DHT22;69160;45.498;-73.582;2023-08-08T06:48:24;22.10;99.90
20005;DHT22;69160;45.498;-73.582;2023-08-08T06:50:50;22.20;99.90
20005;DHT22;69160;45.498;-73.582;2023-08-08T06:53:17;22.20;99.90
20005;DHT22;69160;45.498;-73.582;2023-08-08T06:55:43;22.30;99.90
20005;DHT22;69160;45.498;-73.582;2023-08-08T06:58:09;22.30;99.90
20005;DHT22;69160;45.498;-73.582;2023-08-08T07:00:35;22.30;99.90
20005;DHT22;69160;45.498;-73.582;2023-08-08T07:03:02;22.30;99.90
20005;DHT22;69160;45.498;-73.582;2023-08-08T07:05:28;22.40;99.90
20005;DHT22;69160;45.498;-73.582;2023-08-08T07:07:55;22.30;99.90
20005;DHT22;69160;45.498;-73.582;2023-08-08T07:10:21;22.40;99.90
20005;DHT22;69160;45.498;-73.582;2023-08-08T07:12:47;22.40;99.90
20005;DHT22;69160;45.498;-73.582;2023-08-08T07:15:14;22.30;99.90
20005;DHT22;69160;45.498;-73.582;2023-08-08T07:17:41;22.10;99.90
20005;DHT22;69160;45.498;-73.582;2023-08-08T07:20:07;22.10;99.90
20005;DHT22;69160;45.498;-73.582;2023-08-08T07:22:34;22.20;99.90
20005;DHT22;69160;45.498;-73.582;2023-08-08T07:25:00;22.20;99.90
20005;DHT22;69160;45.498;-73.582;2023-08-08T07:27:27;22.30;99.90
20005;DHT22;69160;45.498;-73.582;2023-08-08T07:29:53;22.40;99.90
20005;DHT22;69160;45.498;-73.582;2023-08-08T07:32:19;22.30;99.90
20005;DHT22;69160;45.498;-73.582;2023-08-08T07:34:45;22.30;99.90
20005;DHT22;69160;45.498;-73.582;2023-08-08T07:37:11;22.40;99.90
20005;DHT22;69160;45.498;-73.582;2023-08-08T07:39:37;22.40;99.90
20005;DHT22;69160;45.498;-73.582;2023-08-08T07:42:04;22.40;99.90
20005;DHT22;69160;45.498;-73.582;2023-08-08T07:44:30;22.30;99.90
20005;DHT22;69160;45.498;-73.582;2023-08-08T07:46:57;22.20;99.90
20005;DHT22;69160;45.498;-73.582;2023-08-08T07:49:23;22.10;99.90
20005;DHT22;69160;45.498;-73.582;2023-08-08T07:51:49;22.20;99.90
20005;DHT22;69160;45.498;-73.582;2023-08-08T07:54:16;22.20;99.90
20005;DHT22;69160;45.498;-73.582;2023-08-08T07:56:42;22.30;99.90
20005;DHT22;69160;45.498;-73.582;2023-08-08T07:59:08;22.30;99.90
20005;DHT22;69160;45.498;-73.582;2023-08-08T08:01:35;22.30;99.90
20005;DHT22;69160;45.498;-73.582;2023-08-08T08:04:02;22.30;99.90
20005;DHT22;69160;45.498;-73.582;2023-08-08T08:06:28;22.30;99.90
20005;DHT22;69160;45.498;-73.582;2023-08-08T08:08:54;22.30;99.90
20005;DHT22;69160;45.498;-73.582;2023-08-08T08:11:21;22.30;99.90
20005;DHT22;69160;45.498;-73.582;2023-08-08T08:13:47;22.30;99.90
20005;DHT22;69160;45.498;-73.582;2023-08-08T08:16:13;22.10;99.90
20005;DHT22;69160;45.498;-73.582;2023-08-08T08:18:39;22.10;99.90
20005;DHT22;69160;45.498;-73.582;2023-08-08T08:21:05;22.20;99.90
20005;DHT22;69160;45.498;-73.582;2023-08-08T08:23:31;22.20;99.90
20005;DHT22;69160;45.498;-73.582;2023-08-08T08:25:58;22.30;99.90
20005;DHT22;69160;45.498;-73.582;2023-08-08T08:28:25;22.30;99.90
20005;DHT22;69160;45.498;-73.582;2023-08-08T08:30:52;22.40;99.90
20005;DHT22;69160;45.498;-73.582;2023-08-08T08:33:18;22.40;99.90
20005;DHT22;69160;45.498;-73.582;2023-08-08T08:35:44;22.30;99.90
20005;DHT22;69160;45.498;-73.582;2023-08-08T08:38:11;22.40;99.90
20005;DHT22;69160;45.498;-73.582;2023-08-08T08:40:38;22.40;99.90
20005;DHT22;69160;45.498;-73.582;2023-08-08T08:43:07;22.40;99.90
20005;DHT22;69160;45.498;-73.582;2023-08-08T08:45:38;22.30;99.90
20005;DHT22;69160;45.498;-73.582;2023-08-08T08:48:09;22.10;99.90
20005;DHT22;69160;45.498;-73.582;2023-08-08T08:50:39;22.10;99.90
20005;DHT22;69160;45.498;-73.582;2023-08-08T08:53:05;22.20;99.90
20005;DHT22;69160;45.498;-73.582;2023-08-08T08:55:32;22.20;99.90
20005;DHT22;69160;45.498;-73.582;2023-08-08T08:57:59;22.30;99.90
20005;DHT22;69160;45.498;-73.582;2023-08-08T09:00:25;22.30;99.90
20005;DHT22;69160;45.498;-73.582;2023-08-08T09:02:52;22.30;99.90
20005;DHT22;69160;45.498;-73.582;2023-08-08T09:05:21;22.30;99.90
20005;DHT22;69160;45.498;-73.582;2023-08-08T09:07:48;22.40;99.90
20005;DHT22;69160;45.498;-73.582;2023-08-08T09:10:17;22.40;99.90
20005;DHT22;69160;45.498;-73.582;2023-08-08T09:12:44;22.30;99.90
20005;DHT22;69160;45.498;-73.582;2023-08-08T09:15:12;22.20;99.90
20005;DHT22;69160;45.498;-73.582;2023-08-08T09:17:44;22.20;99.90
20005;DHT22;69160;45.498;-73.582;2023-08-08T09:20:13;22.20;99.90
20005;DHT22;69160;45.498;-73.582;2023-08-08T09:22:39;22.30;99.90
20005;DHT22;69160;45.498;-73.582;2023-08-08T09:25:06;22.30;99.90
20005;DHT22;69160;45.498;-73.582;2023-08-08T09:27:34;22.30;99.90
20005;DHT22;69160;45.498;-73.582;2023-08-08T09:30:01;22.30;99.90
20005;DHT22;69160;45.498;-73.582;2023-08-08T09:32:31;22.30;99.90
20005;DHT22;69160;45.498;-73.582;2023-08-08T09:34:58;22.40;99.90
20005;DHT22;69160;45.498;-73.582;2023-08-08T09:37:28;22.30;99.90
20005;DHT22;69160;45.498;-73.582;2023-08-08T09:40:01;22.10;99.90
20005;DHT22;69160;45.498;-73.582;2023-08-08T09:42:29;22.10;99.90
20005;DHT22;69160;45.498;-73.582;2023-08-08T09:44:59;22.20;99.90
20005;DHT22;69160;45.498;-73.582;2023-08-08T09:47:25;22.20;99.90
20005;DHT22;69160;45.498;-73.582;2023-08-08T09:50:02;22.20;99.90
20005;DHT22;69160;45.498;-73.582;2023-08-08T09:52:30;22.30;99.90
20005;DHT22;69160;45.498;-73.582;2023-08-08T09:54:58;22.30;99.90
20005;DHT22;69160;45.498;-73.582;2023-08-08T09:57:25;22.30;99.90
20005;DHT22;69160;45.498;-73.582;2023-08-08T09:59:52;22.30;99.90
20005;DHT22;69160;45.498;-73.582;2023-08-08T10:02:19;22.40;99.90
20005;DHT22;69160;45.498;-73.582;2023-08-08T10:04:46;22.40;99.90
20005;DHT22;69160;45.498;-73.582;2023-08-08T10:07:12;22.30;99.90
20005;DHT22;69160;45.498;-73.582;2023-08-08T10:09:39;22.20;99.90
20005;DHT22;69160;45.498;-73.582;2023-08-08T10:12:06;22.20;99.90
20005;DHT22;69160;45.498;-73.582;2023-08-08T10:14:35;22.20;99.90
20005;DHT22;69160;45.498;-73.582;2023-08-08T10:17:06;22.30;99.90
20005;DHT22;69160;45.498;-73.582;2023-08-08T10:19:32;22.30;99.90
20005;DHT22;69160;45.498;-73.582;2023-08-08T10:22:03;22.30;99.90
20005;DHT22;69160;45.498;-73.582;2023-08-08T10:24:36;22.30;99.90
20005;DHT22;69160;45.498;-73.582;2023-08-08T10:27:03;22.30;99.90
20005;DHT22;69160;45.498;-73.582;2023-08-08T10:29:32;22.40;99.90
20005;DHT22;69160;45.498;-73.582;2023-08-08T10:32:04;22.30;99.90
20005;DHT22;69160;45.498;-73.582;2023-08-08T10:34:39;22.20;99.90
20005;DHT22;69160;45.498;-73.582;2023-08-08T10:37:15;22.10;99.90
20005;DHT22;69160;45.498;-73.582;2023-08-08T10:39:59;22.10;99.90
20005;DHT22;69160;45.498;-73.582;2023-08-08T10:42:27;22.20;99.90
20005;DHT22;69160;45.498;-73.582;2023-08-08T10:44:59;22.20;99.90
20005;DHT22;69160;45.498;-73.582;2023-08-08T10:47:31;22.30;99.90
20005;DHT22;69160;45.498;-73.582;2023-08-08T10:49:59;22.30;99.90
20005;DHT22;69160;45.498;-73.582;2023-08-08T10:52:25;22.30;99.90
20005;DHT22;69160;45.498;-73.582;2023-08-08T10:54:52;22.30;99.90
20005;DHT22;69160;45.498;-73.582;2023-08-08T10:57:25;22.40;99.90
20005;DHT22;69160;45.498;-73.582;2023-08-08T10:59:53;22.40;99.90
20005;DHT22;69160;45.498;-73.582;2023-08-08T11:02:20;22.40;99.90
20005;DHT22;69160;45.498;-73.582;2023-08-08T11:04:48;22.50;99.90
20005;DHT22;69160;45.498;-73.582;2023-08-08T11:07:16;22.40;99.90
20005;DHT22;69160;45.498;-73.582;2023-08-08T11:09:43;22.20;99.90
20005;DHT22;69160;45.498;-73.582;2023-08-08T11:12:16;22.20;99.90
20005;DHT22;69160;45.498;-73.582;2023-08-08T11:14:42;22.20;99.90
20005;DHT22;69160;45.498;-73.582;2023-08-08T11:17:10;22.30;99.90
20005;DHT22;69160;45.498;-73.582;2023-08-08T11:19:41;22.30;99.90
20005;DHT22;69160;45.498;-73.582;2023-08-08T11:22:10;22.30;99.90
20005;DHT22;69160;45.498;-73.582;2023-08-08T11:24:37;22.30;99.90
20005;DHT22;69160;45.498;-73.582;2023-08-08T11:27:03;22.40;99.90
20005;DHT22;69160;45.498;-73.582;2023-08-08T11:29:30;22.40;99.90
20005;DHT22;69160;45.498;-73.582;2023-08-08T11:31:59;22.40;99.90
20005;DHT22;69160;45.498;-73.582;2023-08-08T11:34:26;22.30;99.90
20005;DHT22;69160;45.498;-73.582;2023-08-08T11:36:52;22.30;99.90
20005;DHT22;69160;45.498;-73.582;2023-08-08T11:39:20;22.30;99.90
20005;DHT22;69160;45.498;-73.582;2023-08-08T11:41:47;22.40;99.90
20005;DHT22;69160;45.498;-73.582;2023-08-08T11:44:13;22.40;99.90
20005;DHT22;69160;45.498;-73.582;2023-08-08T11:46:46;22.40;99.90
20005;DHT22;69160;45.498;-73.582;2023-08-08T11:49:15;22.50;99.90
20005;DHT22;69160;45.498;-73.582;2023-08-08T11:51:44;22.50;99.90
20005;DHT22;69160;45.498;-73.582;2023-08-08T11:54:11;22.60;99.90
20005;DHT22;69160;45.498;-73.582;2023-08-08T11:56:37;22.60;99.90
20005;DHT22;69160;45.498;-73.582;2023-08-08T11:59:05;22.70;99.90
20005;DHT22;69160;45.498;-73.582;2023-08-08T12:01:33;22.70;99.90
20005;DHT22;69160;45.498;-73.582;2023-08-08T12:04:07;22.70;99.90
20005;DHT22;69160;45.498;-73.582;2023-08-08T12:06:36;22.60;99.90
20005;DHT22;69160;45.498;-73.582;2023-08-08T12:09:03;22.60;99.90
20005;DHT22;69160;45.498;-73.582;2023-08-08T12:11:29;22.60;99.90
20005;DHT22;69160;45.498;-73.582;2023-08-08T12:13:59;22.60;99.90
20005;DHT22;69160;45.498;-73.582;2023-08-08T12:16:28;22.70;99.90
20005;DHT22;69160;45.498;-73.582;2023-08-08T12:18:56;22.70;99.90
20005;DHT22;69160;45.498;-73.582;2023-08-08T12:21:22;22.70;99.90
20005;DHT22;69160;45.498;-73.582;2023-08-08T12:23:48;22.70;99.90
20005;DHT22;69160;45.498;-73.582;2023-08-08T12:26:14;22.70;99.90
20005;DHT22;69160;45.498;-73.582;2023-08-08T12:28:40;22.70;99.90
20005;DHT22;69160;45.498;-73.582;2023-08-08T12:31:06;22.60;99.90
20005;DHT22;69160;45.498;-73.582;2023-08-08T12:33:32;22.50;99.90
20005;DHT22;69160;45.498;-73.582;2023-08-08T12:35:59;22.50;99.90
20005;DHT22;69160;45.498;-73.582;2023-08-08T12:38:25;22.60;99.90
20005;DHT22;69160;45.498;-73.582;2023-08-08T12:40:51;22.60;99.90
20005;DHT22;69160;45.498;-73.582;2023-08-08T12:43:17;22.60;99.90
20005;DHT22;69160;45.498;-73.582;2023-08-08T12:45:44;22.70;99.90
20005;DHT22;69160;45.498;-73.582;2023-08-08T12:48:12;22.80;99.90
20005;DHT22;69160;45.498;-73.582;2023-08-08T12:50:38;22.80;99.90
20005;DHT22;69160;45.498;-73.582;2023-08-08T12:53:05;22.90;99.90
20005;DHT22;69160;45.498;-73.582;2023-08-08T12:55:31;22.80;99.90
20005;DHT22;69160;45.498;-73.582;2023-08-08T12:57:57;22.90;99.90
20005;DHT22;69160;45.498;-73.582;2023-08-08T13:00:23;22.90;99.90
20005;DHT22;69160;45.498;-73.582;2023-08-08T13:02:50;22.90;99.90
20005;DHT22;69160;45.498;-73.582;2023-08-08T13:05:16;22.80;99.90
20005;DHT22;69160;45.498;-73.582;2023-08-08T13:07:42;22.70;99.90
20005;DHT22;69160;45.498;-73.582;2023-08-08T13:10:11;22.60;99.90
20005;DHT22;69160;45.498;-73.582;2023-08-08T13:12:37;22.60;99.90
20005;DHT22;69160;45.498;-73.582;2023-08-08T13:15:04;22.60;99.90
20005;DHT22;69160;45.498;-73.582;2023-08-08T13:17:31;22.60;99.90
20005;DHT22;69160;45.498;-73.582;2023-08-08T13:19:57;22.60;99.90
20005;DHT22;69160;45.498;-73.582;2023-08-08T13:22:23;22.70;99.90
20005;DHT22;69160;45.498;-73.582;2023-08-08T13:24:50;22.70;99.90
20005;DHT22;69160;45.498;-73.582;2023-08-08T13:27:16;22.70;99.90
20005;DHT22;69160;45.498;-73.582;2023-08-08T13:29:42;22.70;99.90
20005;DHT22;69160;45.498;-73.582;2023-08-08T13:32:08;22.70;99.90
20005;DHT22;69160;45.498;-73.582;2023-08-08T13:34:34;22.70;99.90
20005;DHT22;69160;45.498;-73.582;2023-08-08T13:37:00;22.70;99.90
20005;DHT22;69160;45.498;-73.582;2023-08-08T13:39:27;22.70;99.90
20005;DHT22;69160;45.498;-73.582;2023-08-08T13:41:53;22.70;99.90
20005;DHT22;69160;45.498;-73.582;2023-08-08T13:44:19;22.70;99.90
20005;DHT22;69160;45.498;-73.582;2023-08-08T13:46:46;22.60;99.90
20005;DHT22;69160;45.498;-73.582;2023-08-08T13:49:12;22.60;99.90
20005;DHT22;69160;45.498;-73.582;2023-08-08T13:51:38;22.50;99.90
20005;DHT22;69160;45.498;-73.582;2023-08-08T13:54:04;22.40;99.90
20005;DHT22;69160;45.498;-73.582;2023-08-08T13:56:30;22.50;99.90
20005;DHT22;69160;45.498;-73.582;2023-08-08T13:58:56;22.50;99.90
20005;DHT22;69160;45.498;-73.582;2023-08-08T14:01:22;22.50;99.90
20005;DHT22;69160;45.498;-73.582;2023-08-08T14:03:49;22.50;99.90
20005;DHT22;69160;45.498;-73.582;2023-08-08T14:06:15;22.50;99.90
20005;DHT22;69160;45.498;-73.582;2023-08-08T14:08:41;22.50;99.90
20005;DHT22;69160;45.498;-73.582;2023-08-08T14:11:07;22.60;99.90
20005;DHT22;69160;45.498;-73.582;2023-08-08T14:13:33;22.50;99.90
20005;DHT22;69160;45.498;-73.582;2023-08-08T14:16:01;22.50;99.90
20005;DHT22;69160;45.498;-73.582;2023-08-08T14:18:27;22.50;99.90
20005;DHT22;69160;45.498;-73.582;2023-08-08T14:20:53;22.60;99.90
20005;DHT22;69160;45.498;-73.582;2023-08-08T14:23:19;22.60;99.90
20005;DHT22;69160;45.498;-73.582;2023-08-08T14:25:47;22.60;99.90
20005;DHT22;69160;45.498;-73.582;2023-08-08T14:28:13;22.60;99.90
20005;DHT22;69160;45.498;-73.582;2023-08-08T14:30:39;22.50;99.90
20005;DHT22;69160;45.498;-73.582;2023-08-08T14:33:06;22.40;99.90
20005;DHT22;69160;45.498;-73.582;2023-08-08T14:35:32;22.40;99.90
20005;DHT22;69160;45.498;-73.582;2023-08-08T14:37:58;22.30;99.90
20005;DHT22;69160;45.498;-73.582;2023-08-08T14:40:24;22.40;99.90
20005;DHT22;69160;45.498;-73.582;2023-08-08T14:42:50;22.40;99.90
20005;DHT22;69160;45.498;-73.582;2023-08-08T14:45:17;22.40;99.90
20005;DHT22;69160;45.498;-73.582;2023-08-08T14:47:43;22.40;99.90
20005;DHT22;69160;45.498;-73.582;2023-08-08T14:50:10;22.40;99.90
20005;DHT22;69160;45.498;-73.582;2023-08-08T14:52:36;22.50;99.90
20005;DHT22;69160;45.498;-73.582;2023-08-08T14:55:02;22.50;99.90
20005;DHT22;69160;45.498;-73.582;2023-08-08T14:57:28;22.50;99.90
20005;DHT22;69160;45.498;-73.582;2023-08-08T14:59:54;22.50;99.90
20005;DHT22;69160;45.498;-73.582;2023-08-08T15:02:20;22.50;99.90